Sunday, October 26, 2014
01:10 UTC
  |  Log In   |  Register Free
Airport Search:

Independence Municipal Airport
(KIDP)

FAA data valid effective September 18, 2014 - November 13, 2014 (unless otherwise noted).

 
 
 
 
 
 
 
 
 
 
 
 
 
 

Current Aviation Weather for Independence Municipal Airport (KIDP)

The most recent METAR observation for KIDP was updated at: 0014
METAR Summary (Translated METAR)
KIDP
252355Z AUTO 14005KT 10SM CLR 22/16 A3000 RMK AO2
KCFV
260052Z AUTO 14005KT 10SM CLR 22/18 A2999 RMK AO2 SLP153 T02170178
(10.6 nm SE from KIDP)
KPPF
252352Z AUTO 00000KT 10SM CLR 21/18 A3001 RMK AO2 SLP156 T02110178 10294 20211 58007
(16.6 nm NE from KIDP)
TAF
No TAF information found within 50 nm of KIDP
  Airport Weather Conditions for KIDP

 Current Weather at IDP
75° F
Fair
Southeast winds at 4.6 mph
IDP NOAA Radar

Pressure: 30.00 in
Humidity: 61%
Wind: Southeast at 4.6 MPH (4 KT)
Dew Point: 60.8°F
Visibility: 10.00 mi


Airport Weather Forecast for KIDP

Translated METAR and TAF for KIDP
Translated METAR for KIDP (0105 UTC 26 October 2014)
found at http://aviationweather.gov/adds/metars/
 
METAR text: KIDP 260055Z AUTO 16003KT 1 3/4SM HZ VV007 21/16 A3000 RMK AO2
Conditions at: KIDP (INDEPENDENCE , KS, US) observed 0055 UTC 26 October 2014
Temperature: 21.0°C (70°F)
Dewpoint: 16.0°C (61°F) [RH = 73%]
Pressure (altimeter): 30.00 inches Hg (1016.0 mb)
Winds: from the SSE (160 degrees) at 3 MPH (3 knots; 1.6 m/s)
Visibility: 1.75 miles (2.82 km)
Ceiling: indefinite ceiling with vertical visibility of 700 feet AGL
Clouds: obscured sky
Weather: HZ  (haze)
Translated TAF for KIDP

There is no translated TAF available for this airport

Find All Airport Services Find A Hotel Find A Rental Car Find A Golf Course Find A Restaurant $100 Hamburger



FBO's on the Field
FBO Company Facility Photos Services Transportation Aviation Fuel Prices: Prices include tax
Catering Weather Repair Courtesy Rental Type 100LL JetA JetA+ MOGAS 8087
 
City of Independence

This FBO has not yet been rated
FS: Phillips 66
Last Updated: Oct-13
Login to update fuel prices
SS:
Contact City of IndependenceMore FBO Information
 
Add another FBO Facility Photos Catering Weather Repair Courtesy Rental Type 100LL JetA JetA+ MOGAS 8087
Services Transportation Aviation Fuel Prices: Prices include tax


model-print
model-print
model-print
model-print